Time;durP1;ratioP1;P1;durP2;ratioP2;P2;SDS_P1;SDS_P2;PMS_P1;PMS_P2;Temp;Humidity;BMP_temperature;BMP_pressure;BME280_temperature;BME280_humidity;BME280_pressure;Samples;Min_cycle;Max_cycle;Signal;HPM_P1;HPM_P2
2023/01/24 00:00:27;;;;;;;;;;;;;;;0.22;100.00;97641.34;5020584;28;19917;-73
2023/01/24 00:02:53;;;;;;;;;;;;;;;0.25;100.00;97643.47;5055920;28;19980;-71
2023/01/24 00:05:19;;;;;;;;;;;;;;;0.32;100.00;97643.97;5020331;28;20011;-72
2023/01/24 00:07:44;;;;;;;;;;;;;;;0.24;100.00;97647.25;5023974;28;20055;-72
2023/01/24 00:10:10;;;;;;;;;;;;;;;0.27;100.00;97633.25;5019301;28;20356;-72
2023/01/24 00:12:35;;;;;;;;;;;;;;;0.30;100.00;97639.94;5023057;28;19925;-72
2023/01/24 00:15:00;;;;;;;;;;;;;;;0.26;100.00;97642.41;5023114;28;19917;-73
2023/01/24 00:17:25;;;;;;;;;;;;;;;0.30;100.00;97646.16;5019038;28;19940;-73
2023/01/24 00:19:51;;;;;;;;;;;;;;;0.27;100.00;97640.50;5056018;28;19917;-73
2023/01/24 00:22:16;;;;;;;;;;;;;;;0.24;100.00;97636.47;5019793;28;19917;-72
2023/01/24 00:24:41;;;;;;;;;;;;;;;0.25;100.00;97646.16;5023415;28;19922;-72
2023/01/24 00:27:06;;;;;;;;;;;;;;;0.33;100.00;97642.91;5050519;28;19917;-72
2023/01/24 00:29:32;;;;;;;;;;;;;;;0.32;100.00;97627.81;5021311;28;19917;-72
2023/01/24 00:31:57;;;;;;;;;;;;;;;0.31;100.00;97633.50;5024221;28;19917;-72
2023/01/24 00:34:22;;;;;;;;;;;;;;;0.27;100.00;97637.81;5016188;28;19947;-72
2023/01/24 00:36:48;;;;;;;;;;;;;;;0.24;100.00;97636.47;5023523;28;19964;-72
2023/01/24 00:39:13;;;;;;;;;;;;;;;0.32;100.00;97645.88;5018021;28;20322;-72
2023/01/24 00:41:38;;;;;;;;;;;;;;;0.31;100.00;97638.88;5005112;28;19953;-73
2023/01/24 00:44:04;;;;;;;;;;;;;;;0.27;100.00;97644.03;5019487;28;19925;-74
2023/01/24 00:46:29;;;;;;;;;;;;;;;0.21;100.00;97645.09;5024212;28;19928;-72
2023/01/24 00:48:55;;;;;;;;;;;;;;;0.24;100.00;97646.47;5024601;28;19924;-72
2023/01/24 00:51:20;;;;;;;;;;;;;;;0.24;100.00;97647.25;5000387;28;19921;-73
2023/01/24 00:53:46;;;;;;;;;;;;;;;0.25;100.00;97659.63;5023962;28;19928;-73
2023/01/24 00:56:11;;;;;;;;;;;;;;;0.25;100.00;97656.94;5016931;28;19924;-73
2023/01/24 00:58:36;;;;;;;;;;;;;;;0.31;100.00;97666.63;5023205;28;19917;-73
2023/01/24 01:01:04;;;;;;;;;;;;;;;0.27;100.00;97662.88;5022518;28;20384;-73
2023/01/24 01:03:30;;;;;;;;;;;;;;;0.30;100.00;97661.50;5034142;28;19947;-73
2023/01/24 01:06:03;;;;;;;;;;;;;;;0.26;100.00;97676.63;5035897;28;19929;-73
2023/01/24 01:08:29;;;;;;;;;;;;;;;0.29;100.00;97671.50;5032970;28;20454;-73
2023/01/24 01:10:54;;;;;;;;;;;;;;;0.30;100.00;97672.28;5037601;28;19917;-73
2023/01/24 01:13:19;;;;;;;;;;;;;;;0.31;100.00;97677.41;5022118;28;20008;-73
2023/01/24 01:15:44;;;;;;;;;;;;;;;0.33;100.00;97679.84;5021225;28;19920;-72
2023/01/24 01:18:10;;;;;;;;;;;;;;;0.33;100.00;97671.75;5027679;28;19939;-73
2023/01/24 01:20:35;;;;;;;;;;;;;;;0.34;100.00;97679.56;5037626;28;19967;-72
2023/01/24 01:23:00;;;;;;;;;;;;;;;0.42;100.00;97682.75;5023804;28;20627;-72
2023/01/24 01:25:26;;;;;;;;;;;;;;;0.36;100.00;97687.34;5054485;28;20016;-73
2023/01/24 01:27:51;;;;;;;;;;;;;;;0.34;100.00;97681.44;5021911;28;19921;-73
2023/01/24 01:30:16;;;;;;;;;;;;;;;0.36;100.00;97698.94;5016422;28;19921;-74
2023/01/24 01:32:42;;;;;;;;;;;;;;;0.34;100.00;97686.81;5023219;28;20324;-73
2023/01/24 01:35:07;;;;;;;;;;;;;;;0.36;100.00;97687.34;5018393;28;19975;-73
2023/01/24 01:37:33;;;;;;;;;;;;;;;0.31;100.00;97688.19;5021836;28;19940;-72
2023/01/24 01:39:58;;;;;;;;;;;;;;;0.34;100.00;97682.25;5023006;28;19917;-72
2023/01/24 01:42:23;;;;;;;;;;;;;;;0.35;100.00;97694.63;5018769;28;20003;-73
2023/01/24 01:44:49;;;;;;;;;;;;;;;0.37;100.00;97692.47;5022259;28;20294;-73
2023/01/24 01:47:32;;;;;;;;;;;;;;;0.34;100.00;97701.13;5049231;28;19967;-74
2023/01/24 01:50:28;;;;;;;;;;;;;;;0.36;100.00;97692.72;5019743;28;19968;-73
2023/01/24 01:52:53;;;;;;;;;;;;;;;0.36;100.00;97690.03;5013820;28;19921;-73
2023/01/24 01:55:20;;;;;;;;;;;;;;;0.33;100.00;97686.03;5017282;28;19924;-73
2023/01/24 01:57:48;;;;;;;;;;;;;;;0.34;100.00;97684.13;5020104;28;19924;-73
2023/01/24 02:00:14;;;;;;;;;;;;;;;0.35;100.00;97683.06;5015177;28;20012;-73
2023/01/24 02:02:41;;;;;;;;;;;;;;;0.34;100.00;97676.88;5021348;28;20023;-73
2023/01/24 02:05:07;;;;;;;;;;;;;;;0.32;100.00;97687.09;5017489;28;19929;-75
2023/01/24 02:07:32;;;;;;;;;;;;;;;0.34;100.00;97678.72;5022483;28;20034;-74
2023/01/24 02:09:58;;;;;;;;;;;;;;;0.29;100.00;97686.84;5022226;28;19955;-74
2023/01/24 02:12:37;;;;;;;;;;;;;;;0.29;100.00;97679.56;5017227;28;20293;-73
2023/01/24 02:17:50;;;;;;;;;;;;;;;0.36;100.00;97687.34;5022993;28;19967;-74
2023/01/24 02:20:34;;;;;;;;;;;;;;;0.36;100.00;97693.56;5015674;28;20282;-74
2023/01/24 02:23:02;;;;;;;;;;;;;;;0.45;100.00;97690.28;5021634;28;20378;-72
2023/01/24 02:25:31;;;;;;;;;;;;;;;0.38;100.00;97693.28;5019793;28;19950;-72
2023/01/24 02:27:58;;;;;;;;;;;;;;;0.38;100.00;97683.31;5022370;28;20293;-73
2023/01/24 02:30:23;;;;;;;;;;;;;;;0.38;100.00;97690.59;5016894;28;20855;-73
2023/01/24 02:32:48;;;;;;;;;;;;;;;0.36;100.00;97696.25;5019763;28;19925;-74
2023/01/24 02:35:24;;;;;;;;;;;;;;;0.40;100.00;97693.00;5017659;28;19928;-74
2023/01/24 02:37:50;;;;;;;;;;;;;;;0.42;100.00;97701.63;5022324;28;19921;-72
2023/01/24 02:40:15;;;;;;;;;;;;;;;0.44;100.00;97692.19;5017453;28;20696;-73
2023/01/24 02:42:40;;;;;;;;;;;;;;;0.42;100.00;97694.34;5030037;28;19981;-72
2023/01/24 02:45:09;;;;;;;;;;;;;;;0.40;100.00;97701.91;5072326;28;19924;-72
2023/01/24 02:47:43;;;;;;;;;;;;;;;0.42;100.00;97709.72;5023848;28;20014;-74
2023/01/24 02:50:09;;;;;;;;;;;;;;;0.45;100.00;97698.38;5016542;28;19917;-75
2023/01/24 02:55:18;;;;;;;;;;;;;;;0.49;100.00;97704.84;5016564;28;20424;-75
2023/01/24 03:00:28;;;;;;;;;;;;;;;0.45;100.00;97696.50;5029742;28;19952;-73
2023/01/24 03:02:53;;;;;;;;;;;;;;;0.42;100.00;97691.66;5044134;28;19953;-75
2023/01/24 03:05:18;;;;;;;;;;;;;;;0.45;100.00;97704.59;5041045;28;19921;-73
2023/01/24 03:07:44;;;;;;;;;;;;;;;0.44;100.00;97700.25;5053733;28;19920;-75
2023/01/24 03:10:10;;;;;;;;;;;;;;;0.44;100.00;97702.16;5064138;28;19920;-73
2023/01/24 03:34:33;;;;;;;;;;;;;;;0.45;100.00;97718.06;5085580;28;20016;-73
2023/01/24 03:37:00;;;;;;;;;;;;;;;0.43;100.00;97720.19;5096921;28;19947;-74
2023/01/24 03:42:09;;;;;;;;;;;;;;;0.40;100.00;97707.28;5073049;28;19985;-74
2023/01/24 03:44:34;;;;;;;;;;;;;;;0.42;100.00;97713.22;5080491;28;19928;-73
2023/01/24 03:47:00;;;;;;;;;;;;;;;0.42;100.00;97712.41;5063355;28;20347;-73
2023/01/24 03:52:25;;;;;;;;;;;;;;;0.37;100.00;97715.91;5075223;28;20397;-73
2023/01/24 03:54:50;;;;;;;;;;;;;;;0.39;100.00;97719.16;5065502;28;19917;-72
2023/01/24 03:57:15;;;;;;;;;;;;;;;0.43;100.00;97724.78;5052223;28;20016;-73
2023/01/24 03:59:41;;;;;;;;;;;;;;;0.41;100.00;97714.28;5062933;28;19916;-74
2023/01/24 04:02:06;;;;;;;;;;;;;;;0.42;100.00;97717.81;5057267;28;19924;-74
2023/01/24 04:07:15;;;;;;;;;;;;;;;0.43;100.00;97730.19;5038603;28;20396;-73
2023/01/24 04:09:40;;;;;;;;;;;;;;;0.40;100.00;97734.25;5042529;28;19952;-72
2023/01/24 04:12:06;;;;;;;;;;;;;;;0.34;100.00;97728.06;5038534;28;19939;-73
2023/01/24 04:14:32;;;;;;;;;;;;;;;0.40;100.00;97730.72;5043854;28;19921;-74
2023/01/24 04:16:57;;;;;;;;;;;;;;;0.39;100.00;97740.69;5043020;28;20289;-73
2023/01/24 04:19:23;;;;;;;;;;;;;;;0.38;100.00;97736.41;5071784;28;20787;-73
2023/01/24 04:21:48;;;;;;;;;;;;;;;0.37;100.00;97738.28;5043685;28;19927;-74
2023/01/24 04:24:13;;;;;;;;;;;;;;;0.40;100.00;97741.50;5038732;28;19921;-73
2023/01/24 04:26:38;;;;;;;;;;;;;;;0.36;100.00;97742.06;5044226;28;19998;-73
2023/01/24 04:29:04;;;;;;;;;;;;;;;0.36;100.00;97738.56;5021749;28;19917;-73
2023/01/24 04:31:29;;;;;;;;;;;;;;;0.31;100.00;97741.28;5043294;28;19994;-74
2023/01/24 04:33:54;;;;;;;;;;;;;;;0.30;100.00;97736.97;5044665;28;19956;-73
2023/01/24 04:36:19;;;;;;;;;;;;;;;0.31;100.00;97741.28;5019614;28;19921;-74
2023/01/24 04:38:45;;;;;;;;;;;;;;;0.31;100.00;97739.38;5024917;28;19925;-72
2023/01/24 04:41:13;;;;;;;;;;;;;;;0.35;100.00;97734.25;5021230;28;19920;-73
2023/01/24 04:43:39;;;;;;;;;;;;;;;0.33;100.00;97736.44;5025288;28;20370;-73
2023/01/24 04:46:05;;;;;;;;;;;;;;;0.33;100.00;97731.84;5019939;28;19917;-75
2023/01/24 04:48:30;;;;;;;;;;;;;;;0.34;100.00;97740.72;5041774;28;19928;-74
2023/01/24 04:50:57;;;;;;;;;;;;;;;0.35;100.00;97735.06;5043559;28;20338;-75
2023/01/24 04:53:22;;;;;;;;;;;;;;;0.34;100.00;97729.94;5054325;28;19925;-74
2023/01/24 04:55:48;;;;;;;;;;;;;;;0.37;100.00;97738.28;5042740;28;20408;-74
2023/01/24 04:58:13;;;;;;;;;;;;;;;0.35;100.00;97745.84;5037807;28;20003;-74
2023/01/24 05:00:38;;;;;;;;;;;;;;;0.36;100.00;97735.84;5041544;28;19917;-75
2023/01/24 05:03:04;;;;;;;;;;;;;;;0.38;100.00;97745.28;5038641;28;19998;-74
2023/01/24 05:05:29;;;;;;;;;;;;;;;0.41;100.00;97754.72;5040965;28;20390;-75
2023/01/24 05:07:54;;;;;;;;;;;;;;;0.41;100.00;97759.31;5042805;28;19936;-74
2023/01/24 05:10:21;;;;;;;;;;;;;;;0.40;100.00;97758.50;5038586;28;19994;-74
2023/01/24 05:12:46;;;;;;;;;;;;;;;0.53;100.00;97767.88;5041581;28;19924;-73
2023/01/24 05:15:11;;;;;;;;;;;;;;;0.42;100.00;97764.41;5020891;28;19971;-73
2023/01/24 05:17:37;;;;;;;;;;;;;;;0.32;100.00;97762.53;5025303;28;19960;-74
2023/01/24 05:20:03;;;;;;;;;;;;;;;0.32;100.00;97765.25;5042394;28;19927;-77
2023/01/24 05:22:28;;;;;;;;;;;;;;;0.25;100.00;97767.41;5023915;28;20370;-75
2023/01/24 05:24:53;;;;;;;;;;;;;;;0.25;100.00;97766.63;5032754;28;19950;-75
2023/01/24 05:27:18;;;;;;;;;;;;;;;0.21;100.00;97766.34;5053525;28;19940;-73
2023/01/24 05:29:44;;;;;;;;;;;;;;;0.22;100.00;97775.22;5041964;28;19917;-76
2023/01/24 05:32:09;;;;;;;;;;;;;;;0.24;100.00;97778.50;5040490;28;19921;-74
2023/01/24 05:34:34;;;;;;;;;;;;;;;0.24;100.00;97778.50;5024791;28;19970;-75
2023/01/24 05:36:59;;;;;;;;;;;;;;;0.19;100.00;97771.22;5042102;28;19916;-75
2023/01/24 05:39:25;;;;;;;;;;;;;;;0.16;100.00;97774.44;5020084;28;20007;-73
2023/01/24 05:41:50;;;;;;;;;;;;;;;0.10;100.00;97770.97;5044266;28;19917;-74
2023/01/24 05:44:15;;;;;;;;;;;;;;;0.22;100.00;97775.22;5036531;28;19932;-74
2023/01/24 05:46:43;;;;;;;;;;;;;;;0.30;100.00;97788.16;5042557;28;19917;-74
2023/01/24 05:49:09;;;;;;;;;;;;;;;0.30;100.00;97783.56;5038098;28;19977;-75
2023/01/24 05:51:34;;;;;;;;;;;;;;;0.27;100.00;97786.00;5060544;28;20007;-74
2023/01/24 05:53:59;;;;;;;;;;;;;;;0.22;100.00;97794.94;5053996;28;19978;-75
2023/01/24 05:56:25;;;;;;;;;;;;;;;0.12;100.00;97795.72;5019403;28;19917;-75
2023/01/24 05:58:50;;;;;;;;;;;;;;;0.13;100.00;97793.88;5049782;28;20344;-75
2023/01/24 06:01:17;;;;;;;;;;;;;;;0.08;100.00;97794.66;5054413;28;19963;-75
2023/01/24 06:03:42;;;;;;;;;;;;;;;0.10;100.00;97799.78;5060092;28;19931;-76
2023/01/24 06:06:11;;;;;;;;;;;;;;;0.16;100.00;97802.22;5058292;28;19916;-77
2023/01/24 06:08:37;;;;;;;;;;;;;;;0.13;100.00;97805.44;5050867;28;19964;-75
2023/01/24 06:11:04;;;;;;;;;;;;;;;0.17;100.00;97803.81;5041845;28;19986;-77
2023/01/24 06:13:30;;;;;;;;;;;;;;;0.16;100.00;97798.69;5024557;28;19917;-73
2023/01/24 06:16:00;;;;;;;;;;;;;;;0.17;100.00;97809.19;5039490;28;19986;-75
2023/01/24 06:18:25;;;;;;;;;;;;;;;0.12;100.00;97803.81;5018740;28;20005;-74
2023/01/24 06:20:51;;;;;;;;;;;;;;;0.05;100.00;97810.56;5042932;28;20263;-74
2023/01/24 06:23:23;;;;;;;;;;;;;;;-0.01;100.00;97818.66;5019943;28;19921;-72
2023/01/24 06:25:49;;;;;;;;;;;;;;;0.08;100.00;97820.81;5045195;28;19923;-75
2023/01/24 06:28:14;;;;;;;;;;;;;;;0.05;100.00;97824.84;5045153;28;19917;-78
2023/01/24 06:30:40;;;;;;;;;;;;;;;0.17;100.00;97828.06;5065520;28;19980;-77
2023/01/24 06:33:08;;;;;;;;;;;;;;;0.29;100.00;97827.78;5043899;28;19928;-75
2023/01/24 06:35:52;;;;;;;;;;;;;;;0.25;100.00;97832.09;5026377;28;20331;-73
2023/01/24 06:38:22;;;;;;;;;;;;;;;0.33;100.00;97836.13;5043361;28;19921;-73
2023/01/24 06:40:58;;;;;;;;;;;;;;;0.14;100.00;97846.66;5046259;28;19920;-74
2023/01/24 06:43:24;;;;;;;;;;;;;;;0.30;100.00;97837.47;5023578;28;19947;-74
2023/01/24 06:45:49;;;;;;;;;;;;;;;0.13;100.00;97851.25;5029891;28;19917;-75
2023/01/24 06:48:14;;;;;;;;;;;;;;;0.28;100.00;97861.19;5041849;28;19917;-72
2023/01/24 06:50:40;;;;;;;;;;;;;;;0.30;100.00;97850.94;5046536;28;19916;-75
2023/01/24 06:53:07;;;;;;;;;;;;;;;0.27;100.00;97858.75;5025028;28;20007;-76
2023/01/24 06:55:33;;;;;;;;;;;;;;;0.23;100.00;97857.69;5045255;28;19964;-75
2023/01/24 06:58:00;;;;;;;;;;;;;;;0.17;100.00;97854.19;5045890;28;19960;-74
2023/01/24 07:00:26;;;;;;;;;;;;;;;0.32;100.00;97859.56;5042661;28;19963;-76
2023/01/24 07:03:02;;;;;;;;;;;;;;;0.21;100.00;97862.56;5045982;28;19948;-73
2023/01/24 07:05:28;;;;;;;;;;;;;;;0.26;100.00;97865.25;5059213;28;19923;-73
2023/01/24 07:07:53;;;;;;;;;;;;;;;0.27;100.00;97866.84;5028916;28;19921;-75
2023/01/24 07:10:18;;;;;;;;;;;;;;;0.34;100.00;97867.38;5041840;28;20004;-73
2023/01/24 07:12:44;;;;;;;;;;;;;;;0.11;100.00;97872.25;5046030;28;19964;-74
2023/01/24 07:15:09;;;;;;;;;;;;;;;0.25;100.00;97874.41;5041238;28;19947;-73
2023/01/24 07:17:35;;;;;;;;;;;;;;;0.10;100.00;97870.63;5045668;28;19917;-74
2023/01/24 07:20:00;;;;;;;;;;;;;;;0.36;100.00;97873.31;5029013;28;20389;-77
2023/01/24 07:22:26;;;;;;;;;;;;;;;0.45;100.00;97881.66;5041200;28;19955;-73
2023/01/24 07:24:52;;;;;;;;;;;;;;;0.51;100.00;97883.28;5046656;28;19967;-73
2023/01/24 07:27:17;;;;;;;;;;;;;;;0.50;100.00;97881.66;5042093;28;19917;-73
2023/01/24 07:29:43;;;;;;;;;;;;;;;0.57;100.00;97882.97;5046804;28;20279;-74
2023/01/24 07:32:09;;;;;;;;;;;;;;;0.32;100.00;97896.50;5041362;28;20408;-73
2023/01/24 07:34:34;;;;;;;;;;;;;;;0.26;100.00;97884.13;5028279;28;19976;-75
2023/01/24 07:36:59;;;;;;;;;;;;;;;0.36;100.00;97886.78;5045984;28;20441;-75
2023/01/24 07:39:26;;;;;;;;;;;;;;;0.32;100.00;97894.59;5031165;28;19963;-75
2023/01/24 07:41:52;;;;;;;;;;;;;;;0.35;100.00;97887.88;5045750;28;19917;-75
2023/01/24 07:44:18;;;;;;;;;;;;;;;0.36;100.00;97890.31;5041433;28;20286;-73
2023/01/24 07:46:43;;;;;;;;;;;;;;;0.38;100.00;97888.13;5036032;28;20011;-74
2023/01/24 07:49:08;;;;;;;;;;;;;;;0.43;100.00;97891.91;5040365;28;20497;-74
2023/01/24 07:51:34;;;;;;;;;;;;;;;0.51;100.00;97900.25;5044599;28;19917;-75
2023/01/24 07:53:59;;;;;;;;;;;;;;;0.47;100.00;97901.88;5043451;28;19917;-73
2023/01/24 07:56:24;;;;;;;;;;;;;;;0.52;100.00;97895.66;5039120;28;19921;-75
2023/01/24 07:58:49;;;;;;;;;;;;;;;0.55;100.00;97901.31;5045364;28;20031;-73
2023/01/24 08:01:15;;;;;;;;;;;;;;;0.51;100.00;97905.66;5040573;28;19929;-74
2023/01/24 08:03:41;;;;;;;;;;;;;;;0.53;100.00;97910.78;5028113;28;19931;-73
2023/01/24 08:06:06;;;;;;;;;;;;;;;0.55;100.00;97903.22;5023728;28;19917;-76
2023/01/24 08:08:31;;;;;;;;;;;;;;;0.55;100.00;97905.91;5045825;28;20020;-75
2023/01/24 08:10:57;;;;;;;;;;;;;;;0.54;100.00;97912.38;5035948;28;20331;-75
2023/01/24 08:13:22;;;;;;;;;;;;;;;0.59;100.00;97906.19;5036848;28;20077;-75
2023/01/24 08:15:47;;;;;;;;;;;;;;;0.60;100.00;97914.00;5057274;28;19917;-75
2023/01/24 08:18:13;;;;;;;;;;;;;;;0.60;100.00;97916.69;5025605;28;20008;-75
2023/01/24 08:20:38;;;;;;;;;;;;;;;0.62;100.00;97919.13;5044298;28;20382;-75
2023/01/24 08:23:03;;;;;;;;;;;;;;;0.68;100.00;97921.50;5059138;28;19917;-82
2023/01/24 08:25:30;;;;;;;;;;;;;;;0.66;100.00;97918.28;5051629;28;19929;-74
2023/01/24 08:27:55;;;;;;;;;;;;;;;0.63;100.00;97920.72;5049544;28;19917;-76
2023/01/24 08:30:21;;;;;;;;;;;;;;;0.60;100.00;97927.47;5034405;28;21343;-75
2023/01/24 08:32:46;;;;;;;;;;;;;;;0.61;100.00;97925.56;5072982;28;19921;-74
2023/01/24 08:35:11;;;;;;;;;;;;;;;0.61;100.00;97920.19;5047608;28;19921;-73
2023/01/24 08:37:39;;;;;;;;;;;;;;;0.59;100.00;97933.94;5031606;28;19920;-73
2023/01/24 08:40:06;;;;;;;;;;;;;;;0.64;100.00;97933.94;5040010;28;19917;-76
2023/01/24 08:42:31;;;;;;;;;;;;;;;0.66;100.00;97930.97;5026647;28;20015;-72
2023/01/24 08:44:56;;;;;;;;;;;;;;;0.68;100.00;97940.38;5044844;28;20050;-72
2023/01/24 08:47:22;;;;;;;;;;;;;;;0.76;100.00;97939.84;5022545;28;19925;-76
2023/01/24 08:49:47;;;;;;;;;;;;;;;0.75;100.00;97942.81;5046538;28;19973;-72
2023/01/24 08:52:13;;;;;;;;;;;;;;;0.74;100.00;97949.31;5053711;28;19920;-77
2023/01/24 08:54:38;;;;;;;;;;;;;;;0.78;100.00;97946.88;5065103;28;19939;-74
2023/01/24 08:57:04;;;;;;;;;;;;;;;0.79;100.00;97945.78;5039309;28;19917;-77
2023/01/24 08:59:30;;;;;;;;;;;;;;;0.76;100.00;97952.53;5025972;28;20392;-74
2023/01/24 09:01:55;;;;;;;;;;;;;;;0.76;100.00;97961.44;5026691;28;20008;-73
2023/01/24 09:04:20;;;;;;;;;;;;;;;0.82;100.00;97956.84;5054926;28;19921;-75
2023/01/24 09:06:46;;;;;;;;;;;;;;;0.81;100.00;97957.09;5026596;28;19921;-74
2023/01/24 09:09:11;;;;;;;;;;;;;;;0.79;100.00;97954.66;5039752;28;19917;-74
2023/01/24 09:11:37;;;;;;;;;;;;;;;0.77;100.00;97954.13;5042970;28;19917;-76
2023/01/24 09:14:02;;;;;;;;;;;;;;;0.79;100.00;97959.25;5041583;28;20413;-80
2023/01/24 09:16:27;;;;;;;;;;;;;;;0.78;100.00;97963.06;5007087;28;19969;-73
2023/01/24 09:18:53;;;;;;;;;;;;;;;0.81;100.00;97963.31;5043847;28;19917;-75
2023/01/24 09:21:19;;;;;;;;;;;;;;;0.85;100.00;97960.88;4994565;28;19921;-74
2023/01/24 09:23:44;;;;;;;;;;;;;;;0.85;100.00;97972.47;5024674;28;20094;-75
2023/01/24 09:26:09;;;;;;;;;;;;;;;0.83;100.00;97981.91;5043852;28;19921;-78
2023/01/24 09:28:37;;;;;;;;;;;;;;;0.86;100.00;97975.97;5033315;28;19917;-75
2023/01/24 09:31:02;;;;;;;;;;;;;;;0.80;100.00;97975.19;5020576;28;19917;-80
2023/01/24 09:33:28;;;;;;;;;;;;;;;0.91;100.00;97974.06;5023111;28;19917;-75
2023/01/24 09:35:54;;;;;;;;;;;;;;;0.77;100.00;97983.81;5024599;28;19917;-76
2023/01/24 09:38:22;;;;;;;;;;;;;;;0.82;100.00;97983.81;5017962;28;19921;-76
2023/01/24 09:40:54;;;;;;;;;;;;;;;0.72;100.00;97979.25;5022716;28;19959;-74
2023/01/24 09:43:29;;;;;;;;;;;;;;;0.85;100.00;97985.16;5019678;28;19921;-74
2023/01/24 09:45:54;;;;;;;;;;;;;;;0.75;100.00;97986.75;5024597;28;19970;-74
2023/01/24 09:48:20;;;;;;;;;;;;;;;0.90;100.00;97991.34;5020780;28;19920;-74
2023/01/24 09:50:50;;;;;;;;;;;;;;;1.00;100.00;97990.53;5039473;28;19918;-77
2023/01/24 09:53:19;;;;;;;;;;;;;;;0.91;100.00;97992.16;5036490;28;19929;-76
2023/01/24 09:55:45;;;;;;;;;;;;;;;0.90;100.00;97987.84;5023154;28;20393;-74
2023/01/24 09:58:19;;;;;;;;;;;;;;;0.95;100.00;97988.66;5042626;28;20466;-76
2023/01/24 10:00:45;;;;;;;;;;;;;;;0.90;100.00;97985.13;5024411;28;19921;-74
2023/01/24 10:03:16;;;;;;;;;;;;;;;0.97;100.00;97982.16;5017727;28;19928;-75
2023/01/24 10:05:45;;;;;;;;;;;;;;;0.93;100.00;97987.28;5022366;28;20015;-74
2023/01/24 10:08:11;;;;;;;;;;;;;;;1.02;100.00;97995.66;5041400;28;19960;-76
2023/01/24 10:10:44;;;;;;;;;;;;;;;0.90;100.00;97993.22;5021365;28;20362;-76
2023/01/24 10:13:09;;;;;;;;;;;;;;;0.90;100.00;97994.06;5017626;28;19994;-75
2023/01/24 10:15:37;;;;;;;;;;;;;;;0.89;100.00;97997.81;5022406;28;19964;-76
2023/01/24 10:18:21;;;;;;;;;;;;;;;0.88;100.00;97990.00;5019055;28;19921;-72
2023/01/24 10:21:05;;;;;;;;;;;;;;;0.93;100.00;97998.88;5023122;28;20034;-76
2023/01/24 10:23:33;;;;;;;;;;;;;;;0.94;100.00;98000.53;5042938;28;20051;-76
2023/01/24 10:26:17;;;;;;;;;;;;;;;0.99;100.00;97999.72;5025050;28;19928;-75
2023/01/24 10:28:45;;;;;;;;;;;;;;;0.92;100.00;97997.28;5024263;28;19917;-75
2023/01/24 10:31:14;;;;;;;;;;;;;;;0.95;100.00;97994.06;5039308;28;19924;-71
2023/01/24 10:33:47;;;;;;;;;;;;;;;0.99;100.00;98002.41;5048414;28;20386;-75
2023/01/24 10:36:33;;;;;;;;;;;;;;;1.02;100.00;97999.16;5019272;28;19917;-75
2023/01/24 10:38:58;;;;;;;;;;;;;;;1.01;100.00;97997.53;5038526;28;20401;-74
2023/01/24 10:41:25;;;;;;;;;;;;;;;1.07;100.00;98001.84;5019647;28;19971;-73
2023/01/24 10:43:58;;;;;;;;;;;;;;;1.09;100.00;97988.09;5022615;28;19921;-75
2023/01/24 10:46:34;;;;;;;;;;;;;;;1.06;100.00;97991.31;5033803;28;20947;-75
2023/01/24 10:49:00;;;;;;;;;;;;;;;1.02;100.00;97992.94;5023873;28;19921;-76
2023/01/24 10:51:26;;;;;;;;;;;;;;;0.95;100.00;97982.44;5034382;28;19967;-76
2023/01/24 10:53:54;;;;;;;;;;;;;;;0.97;100.00;97982.16;5039146;28;19918;-74
2023/01/24 10:56:20;;;;;;;;;;;;;;;0.98;100.00;97992.69;5026895;28;19921;-76
2023/01/24 10:58:56;;;;;;;;;;;;;;;1.02;100.00;97984.84;5043205;28;19908;-73
2023/01/24 11:01:32;;;;;;;;;;;;;;;1.01;100.00;97984.06;5045504;28;19920;-76
2023/01/24 11:03:57;;;;;;;;;;;;;;;1.01;100.00;97972.44;5059316;28;19932;-74
2023/01/24 11:06:37;;;;;;;;;;;;;;;1.04;100.00;97964.59;5034023;28;20080;-77
2023/01/24 11:09:04;;;;;;;;;;;;;;;1.06;100.00;97964.34;5018760;28;19969;-71
2023/01/24 11:11:31;;;;;;;;;;;;;;;1.08;100.00;97960.31;5043530;28;19923;-75
2023/01/24 11:13:58;;;;;;;;;;;;;;;1.09;100.00;97961.91;5050156;28;20110;-74
2023/01/24 11:16:30;;;;;;;;;;;;;;;1.14;100.00;97956.50;5055945;28;19927;-74
2023/01/24 11:18:58;;;;;;;;;;;;;;;1.14;100.00;97953.00;5042767;28;19925;-75
2023/01/24 11:21:24;;;;;;;;;;;;;;;1.27;100.00;97954.31;5023769;28;20366;-74
2023/01/24 11:24:22;;;;;;;;;;;;;;;1.21;100.00;97944.63;5033577;28;19924;-76
2023/01/24 11:26:54;;;;;;;;;;;;;;;1.31;100.00;97958.06;5013419;28;19940;-76
2023/01/24 11:29:19;;;;;;;;;;;;;;;1.39;100.00;97956.66;5024447;28;20397;-76
2023/01/24 11:31:47;;;;;;;;;;;;;;;1.38;100.00;97957.78;5028159;28;19917;-74
2023/01/24 11:34:31;;;;;;;;;;;;;;;1.35;100.00;97953.72;5039005;28;20367;-75
2023/01/24 11:37:08;;;;;;;;;;;;;;;1.36;100.00;97959.94;5027658;28;20019;-76
2023/01/24 11:39:34;;;;;;;;;;;;;;;1.46;100.00;97949.09;5030366;28;19918;-75
2023/01/24 11:42:08;;;;;;;;;;;;;;;1.57;100.00;97947.16;5061587;28;19924;-77
2023/01/24 11:44:40;;;;;;;;;;;;;;;1.51;100.00;97949.91;5058481;28;19928;-77
2023/01/24 11:47:17;;;;;;;;;;;;;;;1.39;100.00;97948.56;5054562;28;19960;-76
2023/01/24 11:49:42;;;;;;;;;;;;;;;1.47;100.00;97951.50;5052439;28;19921;-74
2023/01/24 11:52:26;;;;;;;;;;;;;;;1.40;100.00;97936.69;5055145;28;19925;-75
2023/01/24 11:54:53;;;;;;;;;;;;;;;1.81;100.00;97936.50;5058987;28;19971;-76
2023/01/24 11:57:43;;;;;;;;;;;;;;;1.56;100.00;97943.66;5022502;28;19962;-76
2023/01/24 12:00:35;;;;;;;;;;;;;;;1.47;100.00;97946.13;5054484;28;20016;-75
2023/01/24 12:03:19;;;;;;;;;;;;;;;1.47;100.00;97948.81;5021215;28;19921;-76
2023/01/24 12:05:58;;;;;;;;;;;;;;;1.69;100.00;97945.75;5025679;28;20358;-75
2023/01/24 12:08:23;;;;;;;;;;;;;;;1.69;100.00;97931.44;5022406;28;20254;-73
2023/01/24 12:11:04;;;;;;;;;;;;;;;1.63;100.00;97943.34;5049861;28;19944;-72
2023/01/24 12:13:35;;;;;;;;;;;;;;;1.36;100.00;97941.03;5047810;28;19927;-75
2023/01/24 12:16:16;;;;;;;;;;;;;;;1.52;100.00;97934.50;5028982;28;19917;-76
2023/01/24 12:18:52;;;;;;;;;;;;;;;1.36;100.00;97941.84;5041968;28;19921;-75
2023/01/24 12:21:18;;;;;;;;;;;;;;;1.62;100.00;97930.91;5020704;28;19920;-75
2023/01/24 12:23:49;;;;;;;;;;;;;;;1.56;100.00;97930.16;5027677;28;19921;-75
2023/01/24 12:26:17;;;;;;;;;;;;;;;1.44;100.00;97932.34;5035477;28;19905;-72
2023/01/24 12:28:47;;;;;;;;;;;;;;;1.70;100.00;97923.03;5074015;28;19992;-75
2023/01/24 12:31:16;;;;;;;;;;;;;;;1.49;100.00;97926.94;5050452;28;19924;-75
2023/01/24 12:33:48;;;;;;;;;;;;;;;1.23;100.00;97924.34;5027106;28;20067;-74
2023/01/24 12:36:23;;;;;;;;;;;;;;;1.19;100.00;97919.78;5012177;28;20078;-75
2023/01/24 12:38:51;;;;;;;;;;;;;;;1.17;100.00;97920.06;5010692;28;19917;-75
2023/01/24 12:41:32;;;;;;;;;;;;;;;1.17;100.00;97911.97;5022983;28;19931;-74
2023/01/24 12:44:02;;;;;;;;;;;;;;;1.25;100.00;97927.56;5023723;28;19928;-75
2023/01/24 12:46:46;;;;;;;;;;;;;;;1.46;100.00;97925.63;5025379;28;19976;-74
2023/01/24 12:49:23;;;;;;;;;;;;;;;1.79;100.00;97914.38;5025865;28;19963;-74
2023/01/24 12:51:48;;;;;;;;;;;;;;;1.30;100.00;97921.38;5024546;28;19975;-76
2023/01/24 12:54:17;;;;;;;;;;;;;;;1.37;100.00;97921.03;5003698;28;19925;-76
2023/01/24 12:56:50;;;;;;;;;;;;;;;1.33;100.00;97926.19;5024634;28;19917;-76
2023/01/24 12:59:19;;;;;;;;;;;;;;;1.25;100.00;97932.19;5019642;28;20003;-75
2023/01/24 13:01:44;;;;;;;;;;;;;;;1.42;100.00;97924.53;5025696;28;20367;-77
2023/01/24 13:04:19;;;;;;;;;;;;;;;1.53;100.00;97922.59;5035777;28;19928;-74
2023/01/24 13:06:54;;;;;;;;;;;;;;;1.41;100.00;97924.84;5023330;28;19917;-76
2023/01/24 13:09:24;;;;;;;;;;;;;;;1.16;100.00;97914.94;5020150;28;20003;-76
2023/01/24 13:11:50;;;;;;;;;;;;;;;1.24;100.00;97915.19;5030221;28;19917;-75
2023/01/24 13:14:25;;;;;;;;;;;;;;;1.12;100.00;97917.38;5035514;28;19960;-73
2023/01/24 13:16:58;;;;;;;;;;;;;;;1.17;100.00;97919.25;5030302;28;20007;-75
2023/01/24 13:19:42;;;;;;;;;;;;;;;1.19;100.00;97919.78;5020279;28;20333;-76
2023/01/24 13:22:19;;;;;;;;;;;;;;;1.40;100.00;97923.19;5049887;28;19921;-73
2023/01/24 13:24:48;;;;;;;;;;;;;;;1.20;100.00;97916.78;5024767;28;19991;-75
2023/01/24 13:27:16;;;;;;;;;;;;;;;1.39;100.00;97918.88;5021844;28;19921;-75
2023/01/24 13:30:00;;;;;;;;;;;;;;;1.44;100.00;97914.28;5044563;28;19921;-74